sensor_id;sensor_type;location;lat;lon;timestamp;P1;durP1;ratioP1;P2;durP2;ratioP2
9076;SDS011;4574;51.072;17.174;2023-02-26T00:01:41;3.67;;;3.00;;
9076;SDS011;4574;51.072;17.174;2023-02-26T00:04:10;6.83;;;3.40;;
9076;SDS011;4574;51.072;17.174;2023-02-26T00:06:39;3.97;;;3.00;;
9076;SDS011;4574;51.072;17.174;2023-02-26T00:09:26;3.97;;;2.67;;
9076;SDS011;4574;51.072;17.174;2023-02-26T00:11:55;4.70;;;3.43;;
9076;SDS011;4574;51.072;17.174;2023-02-26T00:14:24;5.70;;;3.13;;
9076;SDS011;4574;51.072;17.174;2023-02-26T00:16:54;7.90;;;3.63;;
9076;SDS011;4574;51.072;17.174;2023-02-26T00:19:35;5.60;;;3.10;;
9076;SDS011;4574;51.072;17.174;2023-02-26T00:22:04;4.23;;;2.97;;
9076;SDS011;4574;51.072;17.174;2023-02-26T00:24:35;6.33;;;3.10;;
9076;SDS011;4574;51.072;17.174;2023-02-26T00:27:03;6.37;;;3.50;;
9076;SDS011;4574;51.072;17.174;2023-02-26T00:29:32;5.00;;;3.10;;
9076;SDS011;4574;51.072;17.174;2023-02-26T00:32:01;5.23;;;3.27;;
9076;SDS011;4574;51.072;17.174;2023-02-26T00:34:30;5.10;;;3.37;;
9076;SDS011;4574;51.072;17.174;2023-02-26T00:37:02;3.73;;;3.00;;
9076;SDS011;4574;51.072;17.174;2023-02-26T00:39:43;4.30;;;3.03;;
9076;SDS011;4574;51.072;17.174;2023-02-26T00:42:18;5.00;;;2.80;;
9076;SDS011;4574;51.072;17.174;2023-02-26T00:44:48;4.27;;;3.10;;
9076;SDS011;4574;51.072;17.174;2023-02-26T00:47:19;6.33;;;3.40;;
9076;SDS011;4574;51.072;17.174;2023-02-26T00:50:00;7.10;;;3.57;;
9076;SDS011;4574;51.072;17.174;2023-02-26T00:52:38;4.10;;;2.80;;
9076;SDS011;4574;51.072;17.174;2023-02-26T00:55:14;4.47;;;3.27;;
9076;SDS011;4574;51.072;17.174;2023-02-26T00:57:43;4.33;;;3.00;;
9076;SDS011;4574;51.072;17.174;2023-02-26T01:00:12;3.60;;;3.00;;
9076;SDS011;4574;51.072;17.174;2023-02-26T01:02:41;3.40;;;3.00;;
9076;SDS011;4574;51.072;17.174;2023-02-26T01:05:11;8.33;;;3.50;;
9076;SDS011;4574;51.072;17.174;2023-02-26T01:07:42;5.93;;;3.90;;
9076;SDS011;4574;51.072;17.174;2023-02-26T01:12:46;5.50;;;2.97;;
9076;SDS011;4574;51.072;17.174;2023-02-26T01:15:15;5.33;;;3.50;;
9076;SDS011;4574;51.072;17.174;2023-02-26T01:17:45;5.87;;;3.60;;
9076;SDS011;4574;51.072;17.174;2023-02-26T01:20:18;4.93;;;3.20;;
9076;SDS011;4574;51.072;17.174;2023-02-26T01:22:51;5.53;;;3.10;;
9076;SDS011;4574;51.072;17.174;2023-02-26T01:25:24;4.97;;;3.00;;
9076;SDS011;4574;51.072;17.174;2023-02-26T01:27:55;2.97;;;2.67;;
9076;SDS011;4574;51.072;17.174;2023-02-26T01:30:25;3.50;;;3.20;;
9076;SDS011;4574;51.072;17.174;2023-02-26T01:32:55;8.50;;;4.23;;
9076;SDS011;4574;51.072;17.174;2023-02-26T01:35:38;5.07;;;3.73;;
9076;SDS011;4574;51.072;17.174;2023-02-26T01:38:14;4.30;;;2.77;;
9076;SDS011;4574;51.072;17.174;2023-02-26T01:43:50;3.30;;;3.00;;
9076;SDS011;4574;51.072;17.174;2023-02-26T01:46:29;3.27;;;2.70;;
9076;SDS011;4574;51.072;17.174;2023-02-26T01:49:03;6.07;;;2.90;;
9076;SDS011;4574;51.072;17.174;2023-02-26T01:51:43;4.23;;;2.97;;
9076;SDS011;4574;51.072;17.174;2023-02-26T01:54:15;6.83;;;3.20;;
9076;SDS011;4574;51.072;17.174;2023-02-26T01:56:49;3.33;;;2.70;;
9076;SDS011;4574;51.072;17.174;2023-02-26T01:59:22;7.53;;;3.13;;
9076;SDS011;4574;51.072;17.174;2023-02-26T02:01:51;3.80;;;2.80;;
9076;SDS011;4574;51.072;17.174;2023-02-26T02:04:23;4.83;;;2.73;;
9076;SDS011;4574;51.072;17.174;2023-02-26T02:06:53;3.43;;;3.00;;
9076;SDS011;4574;51.072;17.174;2023-02-26T02:09:22;3.60;;;2.70;;
9076;SDS011;4574;51.072;17.174;2023-02-26T02:12:08;5.27;;;2.90;;
9076;SDS011;4574;51.072;17.174;2023-02-26T02:14:52;4.43;;;3.27;;
9076;SDS011;4574;51.072;17.174;2023-02-26T02:17:31;3.67;;;2.77;;
9076;SDS011;4574;51.072;17.174;2023-02-26T02:20:26;6.77;;;2.60;;
9076;SDS011;4574;51.072;17.174;2023-02-26T02:23:10;4.57;;;3.17;;
9076;SDS011;4574;51.072;17.174;2023-02-26T02:26:03;7.00;;;3.17;;
9076;SDS011;4574;51.072;17.174;2023-02-26T02:28:46;4.43;;;3.10;;
9076;SDS011;4574;51.072;17.174;2023-02-26T02:31:30;3.63;;;3.03;;
9076;SDS011;4574;51.072;17.174;2023-02-26T02:34:03;4.30;;;3.17;;
9076;SDS011;4574;51.072;17.174;2023-02-26T02:36:41;4.40;;;3.20;;
9076;SDS011;4574;51.072;17.174;2023-02-26T02:39:14;4.57;;;3.33;;
9076;SDS011;4574;51.072;17.174;2023-02-26T02:41:48;5.13;;;3.03;;
9076;SDS011;4574;51.072;17.174;2023-02-26T02:44:20;4.00;;;3.17;;
9076;SDS011;4574;51.072;17.174;2023-02-26T02:46:54;4.27;;;3.07;;
9076;SDS011;4574;51.072;17.174;2023-02-26T02:49:26;5.23;;;2.80;;
9076;SDS011;4574;51.072;17.174;2023-02-26T02:51:59;6.00;;;2.93;;
9076;SDS011;4574;51.072;17.174;2023-02-26T02:54:33;4.27;;;3.23;;
9076;SDS011;4574;51.072;17.174;2023-02-26T02:57:08;3.17;;;2.87;;
9076;SDS011;4574;51.072;17.174;2023-02-26T02:59:43;3.53;;;3.10;;
9076;SDS011;4574;51.072;17.174;2023-02-26T03:04:57;4.63;;;2.93;;
9076;SDS011;4574;51.072;17.174;2023-02-26T03:07:26;4.17;;;3.23;;
9076;SDS011;4574;51.072;17.174;2023-02-26T03:09:58;4.80;;;3.17;;
9076;SDS011;4574;51.072;17.174;2023-02-26T03:12:29;3.40;;;2.93;;
9076;SDS011;4574;51.072;17.174;2023-02-26T03:14:59;5.17;;;3.30;;
9076;SDS011;4574;51.072;17.174;2023-02-26T03:17:30;4.90;;;2.93;;
9076;SDS011;4574;51.072;17.174;2023-02-26T03:20:08;4.70;;;3.30;;
9076;SDS011;4574;51.072;17.174;2023-02-26T03:22:45;5.00;;;2.87;;
9076;SDS011;4574;51.072;17.174;2023-02-26T03:25:21;5.07;;;3.10;;
9076;SDS011;4574;51.072;17.174;2023-02-26T03:27:54;4.40;;;3.43;;
9076;SDS011;4574;51.072;17.174;2023-02-26T03:30:30;3.40;;;2.70;;
9076;SDS011;4574;51.072;17.174;2023-02-26T03:33:05;3.63;;;2.90;;
9076;SDS011;4574;51.072;17.174;2023-02-26T03:35:44;5.57;;;3.10;;
9076;SDS011;4574;51.072;17.174;2023-02-26T03:38:18;4.10;;;2.97;;
9076;SDS011;4574;51.072;17.174;2023-02-26T03:40:53;3.30;;;3.03;;
9076;SDS011;4574;51.072;17.174;2023-02-26T03:43:27;2.77;;;2.27;;
9076;SDS011;4574;51.072;17.174;2023-02-26T03:45:59;4.50;;;2.73;;
9076;SDS011;4574;51.072;17.174;2023-02-26T03:48:32;3.70;;;2.57;;
9076;SDS011;4574;51.072;17.174;2023-02-26T03:51:05;2.70;;;2.40;;
9076;SDS011;4574;51.072;17.174;2023-02-26T03:53:38;2.70;;;2.40;;
9076;SDS011;4574;51.072;17.174;2023-02-26T03:56:14;4.60;;;2.50;;
9076;SDS011;4574;51.072;17.174;2023-02-26T03:58:45;2.43;;;2.20;;
9076;SDS011;4574;51.072;17.174;2023-02-26T04:01:14;2.53;;;2.30;;
9076;SDS011;4574;51.072;17.174;2023-02-26T04:03:48;2.40;;;2.20;;
9076;SDS011;4574;51.072;17.174;2023-02-26T04:06:26;3.63;;;2.37;;
9076;SDS011;4574;51.072;17.174;2023-02-26T04:08:55;2.60;;;2.40;;
9076;SDS011;4574;51.072;17.174;2023-02-26T04:11:24;3.33;;;2.53;;
9076;SDS011;4574;51.072;17.174;2023-02-26T04:13:54;2.83;;;2.40;;
9076;SDS011;4574;51.072;17.174;2023-02-26T04:16:23;2.87;;;2.63;;
9076;SDS011;4574;51.072;17.174;2023-02-26T04:18:53;3.73;;;2.80;;
9076;SDS011;4574;51.072;17.174;2023-02-26T04:21:21;4.13;;;2.20;;
9076;SDS011;4574;51.072;17.174;2023-02-26T04:23:52;2.90;;;2.43;;
9076;SDS011;4574;51.072;17.174;2023-02-26T04:26:21;4.83;;;1.90;;
9076;SDS011;4574;51.072;17.174;2023-02-26T04:28:50;3.67;;;2.13;;
9076;SDS011;4574;51.072;17.174;2023-02-26T04:31:19;2.87;;;2.20;;
9076;SDS011;4574;51.072;17.174;2023-02-26T04:33:47;3.57;;;2.50;;
9076;SDS011;4574;51.072;17.174;2023-02-26T04:36:17;3.53;;;2.30;;
9076;SDS011;4574;51.072;17.174;2023-02-26T04:38:45;3.63;;;2.30;;
9076;SDS011;4574;51.072;17.174;2023-02-26T04:41:16;2.70;;;2.50;;
9076;SDS011;4574;51.072;17.174;2023-02-26T04:43:44;4.33;;;2.87;;
9076;SDS011;4574;51.072;17.174;2023-02-26T04:46:13;2.67;;;2.20;;
9076;SDS011;4574;51.072;17.174;2023-02-26T04:48:42;1.93;;;1.73;;
9076;SDS011;4574;51.072;17.174;2023-02-26T04:51:11;2.97;;;2.70;;
9076;SDS011;4574;51.072;17.174;2023-02-26T04:53:40;3.50;;;2.17;;
9076;SDS011;4574;51.072;17.174;2023-02-26T04:56:08;2.70;;;2.20;;
9076;SDS011;4574;51.072;17.174;2023-02-26T04:58:38;3.20;;;2.10;;
9076;SDS011;4574;51.072;17.174;2023-02-26T05:01:07;2.10;;;1.90;;
9076;SDS011;4574;51.072;17.174;2023-02-26T05:03:36;2.90;;;2.13;;
9076;SDS011;4574;51.072;17.174;2023-02-26T05:06:05;4.07;;;2.27;;
9076;SDS011;4574;51.072;17.174;2023-02-26T05:08:34;2.57;;;1.80;;
9076;SDS011;4574;51.072;17.174;2023-02-26T05:11:07;2.20;;;2.00;;
9076;SDS011;4574;51.072;17.174;2023-02-26T05:13:35;2.00;;;1.80;;
9076;SDS011;4574;51.072;17.174;2023-02-26T05:16:06;2.43;;;2.23;;
9076;SDS011;4574;51.072;17.174;2023-02-26T05:18:35;4.93;;;2.17;;
9076;SDS011;4574;51.072;17.174;2023-02-26T05:21:05;2.57;;;2.00;;
9076;SDS011;4574;51.072;17.174;2023-02-26T05:23:33;3.40;;;2.00;;
9076;SDS011;4574;51.072;17.174;2023-02-26T05:26:02;2.90;;;2.37;;
9076;SDS011;4574;51.072;17.174;2023-02-26T05:28:31;4.70;;;1.87;;
9076;SDS011;4574;51.072;17.174;2023-02-26T05:31:03;3.47;;;2.27;;
9076;SDS011;4574;51.072;17.174;2023-02-26T05:33:34;2.10;;;1.90;;
9076;SDS011;4574;51.072;17.174;2023-02-26T05:36:03;3.40;;;2.30;;
9076;SDS011;4574;51.072;17.174;2023-02-26T05:38:32;4.17;;;2.27;;
9076;SDS011;4574;51.072;17.174;2023-02-26T05:41:01;2.47;;;1.93;;
9076;SDS011;4574;51.072;17.174;2023-02-26T05:43:31;2.37;;;2.10;;
9076;SDS011;4574;51.072;17.174;2023-02-26T05:46:00;3.00;;;2.20;;
9076;SDS011;4574;51.072;17.174;2023-02-26T05:48:29;2.23;;;2.03;;
9076;SDS011;4574;51.072;17.174;2023-02-26T05:50:59;3.00;;;1.93;;
9076;SDS011;4574;51.072;17.174;2023-02-26T05:53:28;3.00;;;2.10;;
9076;SDS011;4574;51.072;17.174;2023-02-26T05:55:57;2.80;;;2.00;;
9076;SDS011;4574;51.072;17.174;2023-02-26T05:58:25;2.10;;;1.87;;
9076;SDS011;4574;51.072;17.174;2023-02-26T06:00:54;3.00;;;2.10;;
9076;SDS011;4574;51.072;17.174;2023-02-26T06:03:25;2.87;;;2.40;;
9076;SDS011;4574;51.072;17.174;2023-02-26T06:05:53;3.17;;;2.00;;
9076;SDS011;4574;51.072;17.174;2023-02-26T06:08:24;3.03;;;1.93;;
9076;SDS011;4574;51.072;17.174;2023-02-26T06:10:52;2.33;;;1.83;;
9076;SDS011;4574;51.072;17.174;2023-02-26T06:13:22;1.70;;;1.57;;
9076;SDS011;4574;51.072;17.174;2023-02-26T06:15:50;3.23;;;2.30;;
9076;SDS011;4574;51.072;17.174;2023-02-26T06:18:19;2.50;;;2.30;;
9076;SDS011;4574;51.072;17.174;2023-02-26T06:20:48;6.57;;;3.60;;
9076;SDS011;4574;51.072;17.174;2023-02-26T06:23:17;12.60;;;6.30;;
9076;SDS011;4574;51.072;17.174;2023-02-26T06:25:48;10.40;;;4.93;;
9076;SDS011;4574;51.072;17.174;2023-02-26T06:28:18;10.40;;;5.30;;
9076;SDS011;4574;51.072;17.174;2023-02-26T06:30:47;12.63;;;5.90;;
9076;SDS011;4574;51.072;17.174;2023-02-26T06:33:16;12.20;;;5.33;;
9076;SDS011;4574;51.072;17.174;2023-02-26T06:35:44;19.97;;;8.20;;
9076;SDS011;4574;51.072;17.174;2023-02-26T06:38:14;11.57;;;6.80;;
9076;SDS011;4574;51.072;17.174;2023-02-26T06:40:43;11.93;;;7.30;;
9076;SDS011;4574;51.072;17.174;2023-02-26T06:43:14;11.43;;;5.90;;
9076;SDS011;4574;51.072;17.174;2023-02-26T06:45:43;7.47;;;4.47;;
9076;SDS011;4574;51.072;17.174;2023-02-26T06:48:14;10.17;;;5.37;;
9076;SDS011;4574;51.072;17.174;2023-02-26T06:50:43;6.90;;;4.53;;
9076;SDS011;4574;51.072;17.174;2023-02-26T06:53:11;3.77;;;2.97;;
9076;SDS011;4574;51.072;17.174;2023-02-26T06:55:41;5.27;;;4.03;;
9076;SDS011;4574;51.072;17.174;2023-02-26T06:58:11;11.10;;;7.53;;
9076;SDS011;4574;51.072;17.174;2023-02-26T07:00:42;12.30;;;7.67;;
9076;SDS011;4574;51.072;17.174;2023-02-26T07:03:12;8.13;;;5.13;;
9076;SDS011;4574;51.072;17.174;2023-02-26T07:05:41;9.57;;;5.43;;
9076;SDS011;4574;51.072;17.174;2023-02-26T07:08:11;5.37;;;2.80;;
9076;SDS011;4574;51.072;17.174;2023-02-26T07:10:40;2.93;;;2.63;;
9076;SDS011;4574;51.072;17.174;2023-02-26T07:13:14;7.47;;;2.90;;
9076;SDS011;4574;51.072;17.174;2023-02-26T07:15:43;3.87;;;2.53;;
9076;SDS011;4574;51.072;17.174;2023-02-26T07:18:12;3.97;;;2.90;;
9076;SDS011;4574;51.072;17.174;2023-02-26T07:20:41;3.43;;;2.40;;
9076;SDS011;4574;51.072;17.174;2023-02-26T07:23:10;3.33;;;2.70;;
9076;SDS011;4574;51.072;17.174;2023-02-26T07:25:39;4.63;;;3.50;;
9076;SDS011;4574;51.072;17.174;2023-02-26T07:28:08;4.90;;;3.10;;
9076;SDS011;4574;51.072;17.174;2023-02-26T07:30:38;8.67;;;3.40;;
9076;SDS011;4574;51.072;17.174;2023-02-26T07:33:08;5.13;;;2.37;;
9076;SDS011;4574;51.072;17.174;2023-02-26T07:35:39;3.30;;;2.40;;
9076;SDS011;4574;51.072;17.174;2023-02-26T07:38:08;4.93;;;3.13;;
9076;SDS011;4574;51.072;17.174;2023-02-26T07:40:37;4.30;;;2.60;;
9076;SDS011;4574;51.072;17.174;2023-02-26T07:43:05;6.87;;;3.87;;
9076;SDS011;4574;51.072;17.174;2023-02-26T07:45:34;7.13;;;4.17;;
9076;SDS011;4574;51.072;17.174;2023-02-26T07:48:04;3.23;;;2.80;;
9076;SDS011;4574;51.072;17.174;2023-02-26T07:50:33;4.20;;;3.20;;
9076;SDS011;4574;51.072;17.174;2023-02-26T07:53:02;4.37;;;3.40;;
9076;SDS011;4574;51.072;17.174;2023-02-26T07:55:30;5.40;;;3.50;;
9076;SDS011;4574;51.072;17.174;2023-02-26T07:57:59;6.53;;;3.37;;
9076;SDS011;4574;51.072;17.174;2023-02-26T08:00:28;7.00;;;3.10;;
9076;SDS011;4574;51.072;17.174;2023-02-26T08:02:56;9.73;;;4.23;;
9076;SDS011;4574;51.072;17.174;2023-02-26T08:05:27;8.30;;;4.70;;
9076;SDS011;4574;51.072;17.174;2023-02-26T08:07:55;7.10;;;4.07;;
9076;SDS011;4574;51.072;17.174;2023-02-26T08:10:24;7.70;;;4.40;;
9076;SDS011;4574;51.072;17.174;2023-02-26T08:12:53;5.57;;;4.27;;
9076;SDS011;4574;51.072;17.174;2023-02-26T08:15:21;7.47;;;5.03;;
9076;SDS011;4574;51.072;17.174;2023-02-26T08:17:50;7.07;;;4.23;;
9076;SDS011;4574;51.072;17.174;2023-02-26T08:20:19;6.97;;;3.80;;
9076;SDS011;4574;51.072;17.174;2023-02-26T08:22:50;5.90;;;4.27;;
9076;SDS011;4574;51.072;17.174;2023-02-26T08:25:19;6.27;;;3.73;;
9076;SDS011;4574;51.072;17.174;2023-02-26T08:27:48;5.10;;;3.37;;
9076;SDS011;4574;51.072;17.174;2023-02-26T08:30:16;4.77;;;3.47;;
9076;SDS011;4574;51.072;17.174;2023-02-26T08:32:45;6.53;;;3.60;;
9076;SDS011;4574;51.072;17.174;2023-02-26T08:35:15;6.23;;;3.90;;
9076;SDS011;4574;51.072;17.174;2023-02-26T08:37:44;6.60;;;4.13;;
9076;SDS011;4574;51.072;17.174;2023-02-26T08:40:14;5.63;;;3.57;;
9076;SDS011;4574;51.072;17.174;2023-02-26T08:42:43;6.80;;;3.67;;
9076;SDS011;4574;51.072;17.174;2023-02-26T08:45:11;5.33;;;3.50;;
9076;SDS011;4574;51.072;17.174;2023-02-26T08:47:40;8.07;;;4.00;;
9076;SDS011;4574;51.072;17.174;2023-02-26T08:50:22;10.73;;;4.70;;
9076;SDS011;4574;51.072;17.174;2023-02-26T08:52:51;10.70;;;5.87;;
9076;SDS011;4574;51.072;17.174;2023-02-26T08:55:21;13.00;;;6.50;;
9076;SDS011;4574;51.072;17.174;2023-02-26T08:57:50;12.57;;;6.10;;
9076;SDS011;4574;51.072;17.174;2023-02-26T09:00:19;6.93;;;4.87;;
9076;SDS011;4574;51.072;17.174;2023-02-26T09:02:48;5.63;;;4.33;;
9076;SDS011;4574;51.072;17.174;2023-02-26T09:05:17;6.53;;;3.93;;
9076;SDS011;4574;51.072;17.174;2023-02-26T09:07:45;9.03;;;4.80;;
9076;SDS011;4574;51.072;17.174;2023-02-26T09:10:14;10.23;;;4.37;;
9076;SDS011;4574;51.072;17.174;2023-02-26T09:12:45;5.10;;;4.03;;
9076;SDS011;4574;51.072;17.174;2023-02-26T09:15:13;5.83;;;3.97;;
9076;SDS011;4574;51.072;17.174;2023-02-26T09:17:42;7.57;;;4.40;;
9076;SDS011;4574;51.072;17.174;2023-02-26T09:20:11;5.80;;;3.97;;
9076;SDS011;4574;51.072;17.174;2023-02-26T09:22:41;6.33;;;4.13;;
9076;SDS011;4574;51.072;17.174;2023-02-26T09:25:09;5.47;;;3.73;;
9076;SDS011;4574;51.072;17.174;2023-02-26T09:27:38;5.67;;;3.80;;
9076;SDS011;4574;51.072;17.174;2023-02-26T09:30:09;4.83;;;3.70;;
9076;SDS011;4574;51.072;17.174;2023-02-26T09:32:38;6.17;;;4.40;;
9076;SDS011;4574;51.072;17.174;2023-02-26T09:35:07;4.93;;;3.50;;
9076;SDS011;4574;51.072;17.174;2023-02-26T09:37:37;5.57;;;3.90;;
9076;SDS011;4574;51.072;17.174;2023-02-26T09:40:06;6.47;;;3.70;;
9076;SDS011;4574;51.072;17.174;2023-02-26T09:42:43;7.33;;;4.50;;
9076;SDS011;4574;51.072;17.174;2023-02-26T09:45:28;5.63;;;3.77;;
9076;SDS011;4574;51.072;17.174;2023-02-26T09:48:00;10.80;;;5.20;;
9076;SDS011;4574;51.072;17.174;2023-02-26T09:50:36;10.07;;;4.57;;
9076;SDS011;4574;51.072;17.174;2023-02-26T09:53:10;9.30;;;4.60;;
9076;SDS011;4574;51.072;17.174;2023-02-26T09:55:44;7.17;;;4.20;;
9076;SDS011;4574;51.072;17.174;2023-02-26T09:58:15;9.60;;;4.90;;
9076;SDS011;4574;51.072;17.174;2023-02-26T10:00:51;6.57;;;4.00;;
9076;SDS011;4574;51.072;17.174;2023-02-26T10:03:26;5.73;;;3.97;;
9076;SDS011;4574;51.072;17.174;2023-02-26T10:06:07;6.63;;;4.57;;
9076;SDS011;4574;51.072;17.174;2023-02-26T10:08:55;10.53;;;5.20;;
9076;SDS011;4574;51.072;17.174;2023-02-26T10:11:34;11.73;;;4.77;;
9076;SDS011;4574;51.072;17.174;2023-02-26T10:14:15;5.17;;;3.63;;
9076;SDS011;4574;51.072;17.174;2023-02-26T10:16:52;6.13;;;3.90;;
9076;SDS011;4574;51.072;17.174;2023-02-26T10:19:24;7.53;;;4.47;;
9076;SDS011;4574;51.072;17.174;2023-02-26T10:21:57;9.00;;;5.20;;
9076;SDS011;4574;51.072;17.174;2023-02-26T10:24:31;11.63;;;6.57;;
9076;SDS011;4574;51.072;17.174;2023-02-26T10:27:10;7.93;;;4.90;;
9076;SDS011;4574;51.072;17.174;2023-02-26T10:29:44;13.30;;;5.77;;
9076;SDS011;4574;51.072;17.174;2023-02-26T10:32:23;6.27;;;4.47;;
9076;SDS011;4574;51.072;17.174;2023-02-26T10:34:57;12.10;;;6.10;;
9076;SDS011;4574;51.072;17.174;2023-02-26T10:37:34;9.07;;;5.47;;
9076;SDS011;4574;51.072;17.174;2023-02-26T10:40:12;9.07;;;5.10;;
9076;SDS011;4574;51.072;17.174;2023-02-26T10:42:46;8.83;;;4.60;;
9076;SDS011;4574;51.072;17.174;2023-02-26T10:45:29;6.30;;;3.80;;
9076;SDS011;4574;51.072;17.174;2023-02-26T10:48:09;5.30;;;3.80;;
9076;SDS011;4574;51.072;17.174;2023-02-26T10:50:46;9.50;;;4.57;;
9076;SDS011;4574;51.072;17.174;2023-02-26T10:53:17;6.53;;;3.70;;
9076;SDS011;4574;51.072;17.174;2023-02-26T10:55:48;7.83;;;5.30;;
9076;SDS011;4574;51.072;17.174;2023-02-26T10:58:20;9.93;;;5.63;;
9076;SDS011;4574;51.072;17.174;2023-02-26T11:00:51;6.10;;;3.90;;
9076;SDS011;4574;51.072;17.174;2023-02-26T11:03:25;6.00;;;3.63;;
9076;SDS011;4574;51.072;17.174;2023-02-26T11:05:58;5.87;;;3.50;;
9076;SDS011;4574;51.072;17.174;2023-02-26T11:08:30;17.47;;;7.50;;
9076;SDS011;4574;51.072;17.174;2023-02-26T11:11:01;8.73;;;4.60;;
9076;SDS011;4574;51.072;17.174;2023-02-26T11:13:32;6.63;;;4.30;;
9076;SDS011;4574;51.072;17.174;2023-02-26T11:16:03;12.97;;;5.90;;
9076;SDS011;4574;51.072;17.174;2023-02-26T11:18:38;8.63;;;5.00;;
9076;SDS011;4574;51.072;17.174;2023-02-26T11:21:08;4.70;;;3.20;;
9076;SDS011;4574;51.072;17.174;2023-02-26T11:23:45;5.00;;;3.13;;
9076;SDS011;4574;51.072;17.174;2023-02-26T11:26:15;4.07;;;3.00;;
9076;SDS011;4574;51.072;17.174;2023-02-26T11:28:48;3.10;;;2.80;;
9076;SDS011;4574;51.072;17.174;2023-02-26T11:31:21;9.73;;;3.37;;
9076;SDS011;4574;51.072;17.174;2023-02-26T11:33:54;5.30;;;3.07;;
9076;SDS011;4574;51.072;17.174;2023-02-26T11:36:28;7.17;;;3.53;;
9076;SDS011;4574;51.072;17.174;2023-02-26T11:39:00;5.60;;;2.97;;
9076;SDS011;4574;51.072;17.174;2023-02-26T11:41:34;6.70;;;3.40;;
9076;SDS011;4574;51.072;17.174;2023-02-26T11:44:06;4.63;;;2.77;;
9076;SDS011;4574;51.072;17.174;2023-02-26T11:46:41;3.67;;;2.77;;
9076;SDS011;4574;51.072;17.174;2023-02-26T11:49:13;5.90;;;3.70;;
9076;SDS011;4574;51.072;17.174;2023-02-26T11:51:45;5.20;;;3.57;;
9076;SDS011;4574;51.072;17.174;2023-02-26T11:54:20;8.53;;;3.43;;
9076;SDS011;4574;51.072;17.174;2023-02-26T11:56:50;4.57;;;3.50;;
9076;SDS011;4574;51.072;17.174;2023-02-26T11:59:20;5.43;;;3.30;;
9076;SDS011;4574;51.072;17.174;2023-02-26T12:01:51;4.67;;;3.50;;
9076;SDS011;4574;51.072;17.174;2023-02-26T12:04:22;7.00;;;4.30;;
9076;SDS011;4574;51.072;17.174;2023-02-26T12:06:54;9.87;;;4.43;;
9076;SDS011;4574;51.072;17.174;2023-02-26T12:09:23;7.97;;;4.87;;
9076;SDS011;4574;51.072;17.174;2023-02-26T12:12:03;9.27;;;5.30;;
9076;SDS011;4574;51.072;17.174;2023-02-26T12:17:41;7.53;;;4.80;;
9076;SDS011;4574;51.072;17.174;2023-02-26T12:20:34;11.23;;;5.83;;
9076;SDS011;4574;51.072;17.174;2023-02-26T12:23:16;6.43;;;4.60;;
9076;SDS011;4574;51.072;17.174;2023-02-26T12:25:57;12.17;;;5.03;;
9076;SDS011;4574;51.072;17.174;2023-02-26T12:28:45;16.23;;;6.63;;
9076;SDS011;4574;51.072;17.174;2023-02-26T12:31:28;22.17;;;8.27;;
9076;SDS011;4574;51.072;17.174;2023-02-26T12:34:27;13.60;;;7.10;;
9076;SDS011;4574;51.072;17.174;2023-02-26T12:37:26;13.07;;;7.17;;
9076;SDS011;4574;51.072;17.174;2023-02-26T12:40:04;8.17;;;4.83;;
9076;SDS011;4574;51.072;17.174;2023-02-26T12:42:46;16.97;;;8.30;;
9076;SDS011;4574;51.072;17.174;2023-02-26T12:45:30;16.87;;;7.33;;
9076;SDS011;4574;51.072;17.174;2023-02-26T12:48:14;7.23;;;4.90;;
9076;SDS011;4574;51.072;17.174;2023-02-26T12:51:14;11.43;;;6.00;;
9076;SDS011;4574;51.072;17.174;2023-02-26T12:53:58;7.97;;;4.77;;
9076;SDS011;4574;51.072;17.174;2023-02-26T12:56:47;5.53;;;3.87;;
9076;SDS011;4574;51.072;17.174;2023-02-26T12:59:35;10.00;;;5.70;;
9076;SDS011;4574;51.072;17.174;2023-02-26T13:02:22;7.00;;;3.97;;
9076;SDS011;4574;51.072;17.174;2023-02-26T13:05:16;4.87;;;3.43;;
9076;SDS011;4574;51.072;17.174;2023-02-26T13:07:55;6.43;;;3.97;;
9076;SDS011;4574;51.072;17.174;2023-02-26T13:10:40;5.20;;;2.97;;
9076;SDS011;4574;51.072;17.174;2023-02-26T13:16:24;5.20;;;3.40;;
9076;SDS011;4574;51.072;17.174;2023-02-26T13:19:11;7.77;;;4.63;;
9076;SDS011;4574;51.072;17.174;2023-02-26T13:21:52;2.40;;;2.20;;
9076;SDS011;4574;51.072;17.174;2023-02-26T13:24:27;2.67;;;2.23;;
9076;SDS011;4574;51.072;17.174;2023-02-26T13:27:02;4.10;;;1.97;;
9076;SDS011;4574;51.072;17.174;2023-02-26T13:29:34;2.40;;;2.13;;
9076;SDS011;4574;51.072;17.174;2023-02-26T13:32:07;3.67;;;2.50;;
9076;SDS011;4574;51.072;17.174;2023-02-26T13:34:41;2.70;;;2.20;;
9076;SDS011;4574;51.072;17.174;2023-02-26T13:37:19;3.27;;;2.10;;
9076;SDS011;4574;51.072;17.174;2023-02-26T13:39:54;3.07;;;2.00;;
9076;SDS011;4574;51.072;17.174;2023-02-26T13:42:35;3.07;;;2.50;;
9076;SDS011;4574;51.072;17.174;2023-02-26T13:45:16;7.13;;;4.40;;
9076;SDS011;4574;51.072;17.174;2023-02-26T13:47:57;6.57;;;3.57;;
9076;SDS011;4574;51.072;17.174;2023-02-26T13:50:40;3.60;;;2.23;;
9076;SDS011;4574;51.072;17.174;2023-02-26T13:56:15;2.23;;;1.77;;
9076;SDS011;4574;51.072;17.174;2023-02-26T13:58:50;2.10;;;1.90;;
9076;SDS011;4574;51.072;17.174;2023-02-26T14:01:26;3.30;;;2.33;;
9076;SDS011;4574;51.072;17.174;2023-02-26T14:04:06;3.27;;;2.20;;
9076;SDS011;4574;51.072;17.174;2023-02-26T14:06:50;3.07;;;2.00;;
9076;SDS011;4574;51.072;17.174;2023-02-26T14:09:37;4.90;;;2.60;;
9076;SDS011;4574;51.072;17.174;2023-02-26T14:15:30;6.10;;;3.37;;
9076;SDS011;4574;51.072;17.174;2023-02-26T14:18:24;5.43;;;4.30;;
9076;SDS011;4574;51.072;17.174;2023-02-26T14:24:04;5.60;;;3.63;;
9076;SDS011;4574;51.072;17.174;2023-02-26T14:26:43;8.83;;;6.33;;
9076;SDS011;4574;51.072;17.174;2023-02-26T14:29:15;9.27;;;5.80;;
9076;SDS011;4574;51.072;17.174;2023-02-26T14:32:03;18.37;;;7.97;;
9076;SDS011;4574;51.072;17.174;2023-02-26T14:34:44;6.23;;;3.77;;
9076;SDS011;4574;51.072;17.174;2023-02-26T14:37:18;7.37;;;3.50;;
9076;SDS011;4574;51.072;17.174;2023-02-26T14:39:52;6.27;;;3.60;;
9076;SDS011;4574;51.072;17.174;2023-02-26T14:42:28;6.90;;;3.63;;
9076;SDS011;4574;51.072;17.174;2023-02-26T14:45:04;4.70;;;2.90;;
9076;SDS011;4574;51.072;17.174;2023-02-26T14:47:46;6.03;;;3.50;;
9076;SDS011;4574;51.072;17.174;2023-02-26T14:50:18;6.17;;;3.43;;
9076;SDS011;4574;51.072;17.174;2023-02-26T14:55:54;7.80;;;2.57;;
9076;SDS011;4574;51.072;17.174;2023-02-26T14:58:38;6.73;;;3.77;;
9076;SDS011;4574;51.072;17.174;2023-02-26T15:01:37;6.83;;;3.97;;
9076;SDS011;4574;51.072;17.174;2023-02-26T15:07:23;11.97;;;4.90;;
9076;SDS011;4574;51.072;17.174;2023-02-26T15:13:06;29.07;;;12.67;;
9076;SDS011;4574;51.072;17.174;2023-02-26T15:15:52;22.20;;;9.43;;
9076;SDS011;4574;51.072;17.174;2023-02-26T15:21:32;22.37;;;9.10;;
9076;SDS011;4574;51.072;17.174;2023-02-26T15:24:10;21.63;;;10.97;;
9076;SDS011;4574;51.072;17.174;2023-02-26T15:26:43;22.43;;;11.57;;
9076;SDS011;4574;51.072;17.174;2023-02-26T15:29:15;25.67;;;10.60;;
9076;SDS011;4574;51.072;17.174;2023-02-26T15:31:46;21.90;;;9.23;;
9076;SDS011;4574;51.072;17.174;2023-02-26T15:34:21;18.67;;;8.03;;
9076;SDS011;4574;51.072;17.174;2023-02-26T15:36:52;18.63;;;7.97;;
9076;SDS011;4574;51.072;17.174;2023-02-26T15:39:24;11.00;;;6.17;;
9076;SDS011;4574;51.072;17.174;2023-02-26T15:41:54;9.37;;;5.70;;
9076;SDS011;4574;51.072;17.174;2023-02-26T15:44:24;20.23;;;10.37;;
9076;SDS011;4574;51.072;17.174;2023-02-26T15:46:56;15.40;;;8.03;;
9076;SDS011;4574;51.072;17.174;2023-02-26T15:49:29;12.07;;;5.17;;
9076;SDS011;4574;51.072;17.174;2023-02-26T15:52:03;7.73;;;4.83;;
9076;SDS011;4574;51.072;17.174;2023-02-26T15:54:34;11.63;;;5.63;;
9076;SDS011;4574;51.072;17.174;2023-02-26T15:57:07;15.83;;;7.33;;
9076;SDS011;4574;51.072;17.174;2023-02-26T15:59:39;14.20;;;6.53;;
9076;SDS011;4574;51.072;17.174;2023-02-26T16:02:11;12.53;;;5.90;;
9076;SDS011;4574;51.072;17.174;2023-02-26T16:04:41;15.20;;;7.30;;
9076;SDS011;4574;51.072;17.174;2023-02-26T16:07:12;14.23;;;7.50;;
9076;SDS011;4574;51.072;17.174;2023-02-26T16:09:45;17.97;;;9.07;;
9076;SDS011;4574;51.072;17.174;2023-02-26T16:12:16;24.77;;;9.80;;